sensor_id;sensor_type;location;lat;lon;timestamp;temperature;humidity
36280;DHT22;22317;47.936;12.742;2023-02-01T00:00:24;2.10;50.80
36280;DHT22;22317;47.936;12.742;2023-02-01T00:02:50;2.20;50.40
36280;DHT22;22317;47.936;12.742;2023-02-01T00:05:16;2.10;50.50
36280;DHT22;22317;47.936;12.742;2023-02-01T00:07:42;2.10;50.60
36280;DHT22;22317;47.936;12.742;2023-02-01T00:10:08;2.10;50.70
36280;DHT22;22317;47.936;12.742;2023-02-01T00:12:34;2.00;50.90
36280;DHT22;22317;47.936;12.742;2023-02-01T00:15:00;1.90;51.10
36280;DHT22;22317;47.936;12.742;2023-02-01T00:17:26;1.90;51.30
36280;DHT22;22317;47.936;12.742;2023-02-01T00:19:52;1.80;51.60
36280;DHT22;22317;47.936;12.742;2023-02-01T00:22:17;1.80;51.80
36280;DHT22;22317;47.936;12.742;2023-02-01T00:24:43;1.70;52.00
36280;DHT22;22317;47.936;12.742;2023-02-01T00:27:09;1.70;52.20
36280;DHT22;22317;47.936;12.742;2023-02-01T00:29:36;1.70;52.40
36280;DHT22;22317;47.936;12.742;2023-02-01T00:32:03;1.60;52.60
36280;DHT22;22317;47.936;12.742;2023-02-01T00:34:29;1.60;52.70
36280;DHT22;22317;47.936;12.742;2023-02-01T00:36:55;1.60;53.00
36280;DHT22;22317;47.936;12.742;2023-02-01T00:39:21;1.50;53.10
36280;DHT22;22317;47.936;12.742;2023-02-01T00:41:47;1.50;53.40
36280;DHT22;22317;47.936;12.742;2023-02-01T00:44:13;1.40;53.60
36280;DHT22;22317;47.936;12.742;2023-02-01T00:46:38;1.30;54.50
36280;DHT22;22317;47.936;12.742;2023-02-01T00:49:04;1.30;54.20
36280;DHT22;22317;47.936;12.742;2023-02-01T00:51:32;1.30;54.30
36280;DHT22;22317;47.936;12.742;2023-02-01T00:53:58;1.20;54.60
36280;DHT22;22317;47.936;12.742;2023-02-01T00:56:24;1.20;54.80
36280;DHT22;22317;47.936;12.742;2023-02-01T00:58:52;1.20;55.00
36280;DHT22;22317;47.936;12.742;2023-02-01T01:01:23;1.10;55.00
36280;DHT22;22317;47.936;12.742;2023-02-01T01:03:52;1.10;55.30
36280;DHT22;22317;47.936;12.742;2023-02-01T01:06:22;1.10;56.10
36280;DHT22;22317;47.936;12.742;2023-02-01T01:08:49;1.10;55.70
36280;DHT22;22317;47.936;12.742;2023-02-01T01:11:18;1.10;55.80
36280;DHT22;22317;47.936;12.742;2023-02-01T01:13:47;1.10;55.90
36280;DHT22;22317;47.936;12.742;2023-02-01T01:16:13;1.10;56.10
36280;DHT22;22317;47.936;12.742;2023-02-01T01:18:39;1.20;56.30
36280;DHT22;22317;47.936;12.742;2023-02-01T01:21:06;1.10;56.30
36280;DHT22;22317;47.936;12.742;2023-02-01T01:23:32;1.10;56.50
36280;DHT22;22317;47.936;12.742;2023-02-01T01:25:58;1.10;56.40
36280;DHT22;22317;47.936;12.742;2023-02-01T01:28:24;1.10;56.50
36280;DHT22;22317;47.936;12.742;2023-02-01T01:30:50;1.10;56.60
36280;DHT22;22317;47.936;12.742;2023-02-01T01:33:16;1.10;56.70
36280;DHT22;22317;47.936;12.742;2023-02-01T01:35:42;1.20;56.80
36280;DHT22;22317;47.936;12.742;2023-02-01T01:38:09;1.20;56.80
36280;DHT22;22317;47.936;12.742;2023-02-01T01:40:35;1.20;56.80
36280;DHT22;22317;47.936;12.742;2023-02-01T01:43:01;1.20;56.90
36280;DHT22;22317;47.936;12.742;2023-02-01T01:45:32;1.20;56.80
36280;DHT22;22317;47.936;12.742;2023-02-01T01:48:02;1.30;56.90
36280;DHT22;22317;47.936;12.742;2023-02-01T01:50:35;1.30;56.80
36280;DHT22;22317;47.936;12.742;2023-02-01T01:53:05;1.30;56.80
36280;DHT22;22317;47.936;12.742;2023-02-01T01:55:35;1.50;57.00
36280;DHT22;22317;47.936;12.742;2023-02-01T01:58:06;1.40;56.80
36280;DHT22;22317;47.936;12.742;2023-02-01T02:00:33;1.40;56.70
36280;DHT22;22317;47.936;12.742;2023-02-01T02:03:11;1.50;56.70
36280;DHT22;22317;47.936;12.742;2023-02-01T02:05:37;1.50;56.60
36280;DHT22;22317;47.936;12.742;2023-02-01T02:08:03;1.50;56.50
36280;DHT22;22317;47.936;12.742;2023-02-01T02:10:30;1.50;56.40
36280;DHT22;22317;47.936;12.742;2023-02-01T02:13:16;1.50;56.50
36280;DHT22;22317;47.936;12.742;2023-02-01T02:15:49;1.50;56.30
36280;DHT22;22317;47.936;12.742;2023-02-01T02:18:39;1.50;56.40
36280;DHT22;22317;47.936;12.742;2023-02-01T02:37:38;1.30;56.60
36280;DHT22;22317;47.936;12.742;2023-02-01T02:46:04;1.30;57.50
36280;DHT22;22317;47.936;12.742;2023-02-01T02:49:27;1.20;56.90
36280;DHT22;22317;47.936;12.742;2023-02-01T02:52:12;1.20;57.10
36280;DHT22;22317;47.936;12.742;2023-02-01T02:54:58;1.10;57.20
36280;DHT22;22317;47.936;12.742;2023-02-01T02:57:46;1.10;57.20
36280;DHT22;22317;47.936;12.742;2023-02-01T03:00:33;1.00;57.50
36280;DHT22;22317;47.936;12.742;2023-02-01T03:03:18;1.00;57.60
36280;DHT22;22317;47.936;12.742;2023-02-01T03:06:03;0.90;57.70
36280;DHT22;22317;47.936;12.742;2023-02-01T03:08:30;0.90;57.80
36280;DHT22;22317;47.936;12.742;2023-02-01T03:13:43;0.80;58.30
36280;DHT22;22317;47.936;12.742;2023-02-01T03:19:01;0.90;58.60
36280;DHT22;22317;47.936;12.742;2023-02-01T03:21:39;0.70;58.70
36280;DHT22;22317;47.936;12.742;2023-02-01T03:24:11;0.70;58.80
36280;DHT22;22317;47.936;12.742;2023-02-01T03:26:43;0.70;58.90
36280;DHT22;22317;47.936;12.742;2023-02-01T03:29:18;0.70;59.10
36280;DHT22;22317;47.936;12.742;2023-02-01T03:31:47;0.70;59.20
36280;DHT22;22317;47.936;12.742;2023-02-01T03:34:13;0.80;59.20
36280;DHT22;22317;47.936;12.742;2023-02-01T03:36:50;0.80;59.30
36280;DHT22;22317;47.936;12.742;2023-02-01T03:39:21;0.80;59.40
36280;DHT22;22317;47.936;12.742;2023-02-01T03:41:50;0.80;59.40
36280;DHT22;22317;47.936;12.742;2023-02-01T03:47:04;0.80;59.60
36280;DHT22;22317;47.936;12.742;2023-02-01T03:49:39;0.90;59.60
36280;DHT22;22317;47.936;12.742;2023-02-01T03:52:10;0.90;59.60
36280;DHT22;22317;47.936;12.742;2023-02-01T03:54:37;0.90;59.60
36280;DHT22;22317;47.936;12.742;2023-02-01T03:57:08;0.90;59.60
36280;DHT22;22317;47.936;12.742;2023-02-01T03:59:39;0.90;60.30
36280;DHT22;22317;47.936;12.742;2023-02-01T04:02:05;0.90;59.50
36280;DHT22;22317;47.936;12.742;2023-02-01T04:04:31;0.90;59.50
36280;DHT22;22317;47.936;12.742;2023-02-01T04:06:57;0.90;59.50
36280;DHT22;22317;47.936;12.742;2023-02-01T04:09:23;0.90;59.50
36280;DHT22;22317;47.936;12.742;2023-02-01T04:11:49;0.80;59.60
36280;DHT22;22317;47.936;12.742;2023-02-01T04:14:15;0.80;59.60
36280;DHT22;22317;47.936;12.742;2023-02-01T04:16:41;0.80;59.70
36280;DHT22;22317;47.936;12.742;2023-02-01T04:19:06;0.80;59.70
36280;DHT22;22317;47.936;12.742;2023-02-01T04:21:32;0.80;59.80
36280;DHT22;22317;47.936;12.742;2023-02-01T04:23:58;1.00;59.90
36280;DHT22;22317;47.936;12.742;2023-02-01T04:26:24;0.80;59.80
36280;DHT22;22317;47.936;12.742;2023-02-01T04:28:50;0.80;59.80
36280;DHT22;22317;47.936;12.742;2023-02-01T04:31:17;0.80;59.90
36280;DHT22;22317;47.936;12.742;2023-02-01T04:33:43;0.80;59.90
36280;DHT22;22317;47.936;12.742;2023-02-01T04:36:09;0.90;60.20
36280;DHT22;22317;47.936;12.742;2023-02-01T04:38:35;0.90;60.20
36280;DHT22;22317;47.936;12.742;2023-02-01T04:41:01;1.10;60.30
36280;DHT22;22317;47.936;12.742;2023-02-01T04:43:26;1.00;60.10
36280;DHT22;22317;47.936;12.742;2023-02-01T04:45:52;1.00;60.00
36280;DHT22;22317;47.936;12.742;2023-02-01T04:48:20;1.00;60.00
36280;DHT22;22317;47.936;12.742;2023-02-01T04:50:48;1.00;60.10
36280;DHT22;22317;47.936;12.742;2023-02-01T04:53:14;1.10;60.00
36280;DHT22;22317;47.936;12.742;2023-02-01T04:55:41;1.10;60.00
36280;DHT22;22317;47.936;12.742;2023-02-01T04:58:07;1.10;60.00
36280;DHT22;22317;47.936;12.742;2023-02-01T05:00:33;1.20;59.90
36280;DHT22;22317;47.936;12.742;2023-02-01T05:02:59;1.10;59.70
36280;DHT22;22317;47.936;12.742;2023-02-01T05:05:25;1.10;59.80
36280;DHT22;22317;47.936;12.742;2023-02-01T05:07:51;1.10;59.80
36280;DHT22;22317;47.936;12.742;2023-02-01T05:10:17;1.20;60.00
36280;DHT22;22317;47.936;12.742;2023-02-01T05:12:44;1.10;59.90
36280;DHT22;22317;47.936;12.742;2023-02-01T05:15:28;1.20;60.00
36280;DHT22;22317;47.936;12.742;2023-02-01T05:17:54;1.10;60.00
36280;DHT22;22317;47.936;12.742;2023-02-01T05:20:20;1.20;60.20
36280;DHT22;22317;47.936;12.742;2023-02-01T05:22:46;1.20;60.20
36280;DHT22;22317;47.936;12.742;2023-02-01T05:25:12;1.20;60.30
36280;DHT22;22317;47.936;12.742;2023-02-01T05:27:38;1.40;60.40
36280;DHT22;22317;47.936;12.742;2023-02-01T05:30:06;1.30;60.20
36280;DHT22;22317;47.936;12.742;2023-02-01T05:32:32;1.40;60.20
36280;DHT22;22317;47.936;12.742;2023-02-01T05:34:57;1.40;60.00
36280;DHT22;22317;47.936;12.742;2023-02-01T05:37:24;1.40;59.80
36280;DHT22;22317;47.936;12.742;2023-02-01T05:39:50;1.40;59.80
36280;DHT22;22317;47.936;12.742;2023-02-01T05:42:16;1.40;59.80
36280;DHT22;22317;47.936;12.742;2023-02-01T05:44:42;1.40;59.80
36280;DHT22;22317;47.936;12.742;2023-02-01T05:47:07;1.40;59.90
36280;DHT22;22317;47.936;12.742;2023-02-01T05:49:33;1.40;59.80
36280;DHT22;22317;47.936;12.742;2023-02-01T05:51:59;1.40;59.70
36280;DHT22;22317;47.936;12.742;2023-02-01T05:54:25;1.50;59.70
36280;DHT22;22317;47.936;12.742;2023-02-01T05:56:50;1.50;59.70
36280;DHT22;22317;47.936;12.742;2023-02-01T05:59:17;1.50;59.60
36280;DHT22;22317;47.936;12.742;2023-02-01T06:01:43;1.60;59.50
36280;DHT22;22317;47.936;12.742;2023-02-01T06:04:08;1.60;59.30
36280;DHT22;22317;47.936;12.742;2023-02-01T06:06:34;1.70;59.30
36280;DHT22;22317;47.936;12.742;2023-02-01T06:09:02;1.50;59.20
36280;DHT22;22317;47.936;12.742;2023-02-01T06:11:28;1.60;59.10
36280;DHT22;22317;47.936;12.742;2023-02-01T06:13:54;1.60;59.10
36280;DHT22;22317;47.936;12.742;2023-02-01T06:16:21;1.60;59.00
36280;DHT22;22317;47.936;12.742;2023-02-01T06:18:48;1.60;58.90
36280;DHT22;22317;47.936;12.742;2023-02-01T06:21:14;1.70;59.50
36280;DHT22;22317;47.936;12.742;2023-02-01T06:23:49;1.70;58.70
36280;DHT22;22317;47.936;12.742;2023-02-01T06:26:16;1.70;58.60
36280;DHT22;22317;47.936;12.742;2023-02-01T06:28:43;1.70;58.50
36280;DHT22;22317;47.936;12.742;2023-02-01T06:31:09;1.70;58.50
36280;DHT22;22317;47.936;12.742;2023-02-01T06:33:36;1.70;58.50
36280;DHT22;22317;47.936;12.742;2023-02-01T06:36:04;1.70;58.40
36280;DHT22;22317;47.936;12.742;2023-02-01T06:38:31;1.80;58.40
36280;DHT22;22317;47.936;12.742;2023-02-01T06:40:57;1.80;58.20
36280;DHT22;22317;47.936;12.742;2023-02-01T06:43:25;1.70;58.20
36280;DHT22;22317;47.936;12.742;2023-02-01T06:45:51;1.70;58.10
36280;DHT22;22317;47.936;12.742;2023-02-01T06:48:17;1.70;58.00
36280;DHT22;22317;47.936;12.742;2023-02-01T06:50:43;1.70;58.00
36280;DHT22;22317;47.936;12.742;2023-02-01T06:53:09;1.70;58.00
36280;DHT22;22317;47.936;12.742;2023-02-01T06:55:35;1.70;58.10
36280;DHT22;22317;47.936;12.742;2023-02-01T06:58:01;1.70;58.10
36280;DHT22;22317;47.936;12.742;2023-02-01T07:00:28;1.70;58.10
36280;DHT22;22317;47.936;12.742;2023-02-01T07:02:54;1.80;58.20
36280;DHT22;22317;47.936;12.742;2023-02-01T07:05:20;1.80;58.00
36280;DHT22;22317;47.936;12.742;2023-02-01T07:07:46;1.80;58.00
36280;DHT22;22317;47.936;12.742;2023-02-01T07:10:12;1.80;58.00
36280;DHT22;22317;47.936;12.742;2023-02-01T07:12:38;1.80;58.00
36280;DHT22;22317;47.936;12.742;2023-02-01T07:15:05;1.80;58.00
36280;DHT22;22317;47.936;12.742;2023-02-01T07:17:31;1.80;58.00
36280;DHT22;22317;47.936;12.742;2023-02-01T07:19:57;1.80;58.00
36280;DHT22;22317;47.936;12.742;2023-02-01T07:22:25;1.80;57.90
36280;DHT22;22317;47.936;12.742;2023-02-01T07:24:51;1.80;58.00
36280;DHT22;22317;47.936;12.742;2023-02-01T07:27:17;1.80;57.90
36280;DHT22;22317;47.936;12.742;2023-02-01T07:29:42;1.80;57.80
36280;DHT22;22317;47.936;12.742;2023-02-01T07:32:08;1.90;57.80
36280;DHT22;22317;47.936;12.742;2023-02-01T07:34:34;1.90;57.70
36280;DHT22;22317;47.936;12.742;2023-02-01T07:37:00;1.90;57.70
36280;DHT22;22317;47.936;12.742;2023-02-01T07:39:26;1.90;57.60
36280;DHT22;22317;47.936;12.742;2023-02-01T07:41:53;2.00;57.70
36280;DHT22;22317;47.936;12.742;2023-02-01T07:44:19;1.90;57.50
36280;DHT22;22317;47.936;12.742;2023-02-01T07:46:48;1.90;57.50
36280;DHT22;22317;47.936;12.742;2023-02-01T07:49:14;2.00;57.60
36280;DHT22;22317;47.936;12.742;2023-02-01T07:51:40;2.00;57.50
36280;DHT22;22317;47.936;12.742;2023-02-01T07:54:06;2.10;57.50
36280;DHT22;22317;47.936;12.742;2023-02-01T07:56:32;2.10;57.40
36280;DHT22;22317;47.936;12.742;2023-02-01T07:58:57;2.10;57.30
36280;DHT22;22317;47.936;12.742;2023-02-01T08:01:27;2.10;57.20
36280;DHT22;22317;47.936;12.742;2023-02-01T08:03:55;2.20;57.10
36280;DHT22;22317;47.936;12.742;2023-02-01T08:06:22;2.20;56.90
36280;DHT22;22317;47.936;12.742;2023-02-01T08:08:49;2.20;56.80
36280;DHT22;22317;47.936;12.742;2023-02-01T08:11:16;2.20;56.70
36280;DHT22;22317;47.936;12.742;2023-02-01T08:13:42;2.30;56.80
36280;DHT22;22317;47.936;12.742;2023-02-01T08:16:10;2.20;56.70
36280;DHT22;22317;47.936;12.742;2023-02-01T08:18:37;2.30;56.80
36280;DHT22;22317;47.936;12.742;2023-02-01T08:23:35;2.30;56.50
36280;DHT22;22317;47.936;12.742;2023-02-01T08:26:09;2.30;56.50
36280;DHT22;22317;47.936;12.742;2023-02-01T08:28:36;2.40;56.50
36280;DHT22;22317;47.936;12.742;2023-02-01T08:31:11;2.40;56.40
36280;DHT22;22317;47.936;12.742;2023-02-01T08:33:37;2.40;56.30
36280;DHT22;22317;47.936;12.742;2023-02-01T08:36:04;2.50;56.40
36280;DHT22;22317;47.936;12.742;2023-02-01T08:38:30;2.50;56.10
36280;DHT22;22317;47.936;12.742;2023-02-01T08:40:57;2.50;56.00
36280;DHT22;22317;47.936;12.742;2023-02-01T08:43:23;2.50;55.90
36280;DHT22;22317;47.936;12.742;2023-02-01T08:45:50;2.60;55.90
36280;DHT22;22317;47.936;12.742;2023-02-01T08:48:19;2.50;55.80
36280;DHT22;22317;47.936;12.742;2023-02-01T08:50:44;2.50;55.70
36280;DHT22;22317;47.936;12.742;2023-02-01T08:53:10;2.50;55.60
36280;DHT22;22317;47.936;12.742;2023-02-01T08:55:39;2.50;55.60
36280;DHT22;22317;47.936;12.742;2023-02-01T08:58:04;2.50;55.50
36280;DHT22;22317;47.936;12.742;2023-02-01T09:00:30;2.50;55.40
36280;DHT22;22317;47.936;12.742;2023-02-01T09:02:56;2.50;55.50
36280;DHT22;22317;47.936;12.742;2023-02-01T09:05:22;2.50;55.40
36280;DHT22;22317;47.936;12.742;2023-02-01T09:07:52;2.60;55.30
36280;DHT22;22317;47.936;12.742;2023-02-01T09:10:18;2.60;55.10
36280;DHT22;22317;47.936;12.742;2023-02-01T09:12:44;2.60;55.00
36280;DHT22;22317;47.936;12.742;2023-02-01T09:15:10;2.80;55.00
36280;DHT22;22317;47.936;12.742;2023-02-01T09:17:36;2.60;54.90
36280;DHT22;22317;47.936;12.742;2023-02-01T09:20:03;2.60;54.70
36280;DHT22;22317;47.936;12.742;2023-02-01T09:22:29;2.60;54.50
36280;DHT22;22317;47.936;12.742;2023-02-01T09:24:55;2.70;54.40
36280;DHT22;22317;47.936;12.742;2023-02-01T09:27:21;2.70;54.50
36280;DHT22;22317;47.936;12.742;2023-02-01T09:29:47;2.70;54.20
36280;DHT22;22317;47.936;12.742;2023-02-01T09:32:19;2.70;54.20
36280;DHT22;22317;47.936;12.742;2023-02-01T09:34:45;2.70;54.00
36280;DHT22;22317;47.936;12.742;2023-02-01T09:37:10;2.70;53.90
36280;DHT22;22317;47.936;12.742;2023-02-01T09:39:36;2.70;53.80
36280;DHT22;22317;47.936;12.742;2023-02-01T09:47:49;2.80;53.70
36280;DHT22;22317;47.936;12.742;2023-02-01T09:50:28;2.80;53.50
36280;DHT22;22317;47.936;12.742;2023-02-01T09:53:03;2.90;53.40
36280;DHT22;22317;47.936;12.742;2023-02-01T09:55:40;2.90;53.40
36280;DHT22;22317;47.936;12.742;2023-02-01T09:58:21;3.00;53.40
36280;DHT22;22317;47.936;12.742;2023-02-01T10:00:57;3.00;53.20
36280;DHT22;22317;47.936;12.742;2023-02-01T10:03:34;3.10;53.10
36280;DHT22;22317;47.936;12.742;2023-02-01T10:06:14;3.10;53.20
36280;DHT22;22317;47.936;12.742;2023-02-01T10:11:52;3.30;53.00
36280;DHT22;22317;47.936;12.742;2023-02-01T10:16:57;3.40;52.70
36280;DHT22;22317;47.936;12.742;2023-02-01T10:22:06;3.60;52.50
36280;DHT22;22317;47.936;12.742;2023-02-01T10:29:45;3.60;52.10
36280;DHT22;22317;47.936;12.742;2023-02-01T10:32:24;3.60;52.00
36280;DHT22;22317;47.936;12.742;2023-02-01T10:34:59;3.60;52.00
36280;DHT22;22317;47.936;12.742;2023-02-01T10:37:29;3.60;52.00
36280;DHT22;22317;47.936;12.742;2023-02-01T10:39:56;3.70;51.90
36280;DHT22;22317;47.936;12.742;2023-02-01T10:42:27;3.70;51.90
36280;DHT22;22317;47.936;12.742;2023-02-01T10:44:56;3.80;52.00
36280;DHT22;22317;47.936;12.742;2023-02-01T10:47:23;3.80;51.90
36280;DHT22;22317;47.936;12.742;2023-02-01T10:49:54;3.80;51.80
36280;DHT22;22317;47.936;12.742;2023-02-01T10:55:30;4.00;51.60
36280;DHT22;22317;47.936;12.742;2023-02-01T10:58:02;4.00;51.60
36280;DHT22;22317;47.936;12.742;2023-02-01T11:00:40;4.10;51.50
36280;DHT22;22317;47.936;12.742;2023-02-01T11:05:52;4.10;51.20
36280;DHT22;22317;47.936;12.742;2023-02-01T11:08:18;4.20;51.40
36280;DHT22;22317;47.936;12.742;2023-02-01T11:10:44;4.30;51.50
36280;DHT22;22317;47.936;12.742;2023-02-01T11:13:17;4.40;51.20
36280;DHT22;22317;47.936;12.742;2023-02-01T11:15:47;4.50;51.00
36280;DHT22;22317;47.936;12.742;2023-02-01T11:18:26;4.60;51.10
36280;DHT22;22317;47.936;12.742;2023-02-01T11:20:52;4.70;50.80
36280;DHT22;22317;47.936;12.742;2023-02-01T11:23:24;4.70;50.70
36280;DHT22;22317;47.936;12.742;2023-02-01T11:25:59;4.70;50.50
36280;DHT22;22317;47.936;12.742;2023-02-01T11:28:28;4.70;50.20
36280;DHT22;22317;47.936;12.742;2023-02-01T11:30:59;4.70;50.30
36280;DHT22;22317;47.936;12.742;2023-02-01T11:33:30;4.60;50.10
36280;DHT22;22317;47.936;12.742;2023-02-01T11:36:01;4.70;49.80
36280;DHT22;22317;47.936;12.742;2023-02-01T11:38:33;4.70;50.00
36280;DHT22;22317;47.936;12.742;2023-02-01T11:41:13;4.70;49.70
36280;DHT22;22317;47.936;12.742;2023-02-01T11:43:57;4.70;49.70
36280;DHT22;22317;47.936;12.742;2023-02-01T11:46:34;4.60;49.60
36280;DHT22;22317;47.936;12.742;2023-02-01T11:49:23;4.60;49.50
36280;DHT22;22317;47.936;12.742;2023-02-01T12:10:28;4.30;49.40
36280;DHT22;22317;47.936;12.742;2023-02-01T12:23:58;4.10;49.30
36280;DHT22;22317;47.936;12.742;2023-02-01T12:37:35;3.80;49.80
36280;DHT22;22317;47.936;12.742;2023-02-01T12:43:19;3.70;49.80
36280;DHT22;22317;47.936;12.742;2023-02-01T12:45:59;3.70;49.90
36280;DHT22;22317;47.936;12.742;2023-02-01T12:51:07;3.70;50.00
36280;DHT22;22317;47.936;12.742;2023-02-01T12:53:57;3.60;49.90
36280;DHT22;22317;47.936;12.742;2023-02-01T12:58:54;3.60;50.00
36280;DHT22;22317;47.936;12.742;2023-02-01T13:01:45;3.50;50.10
36280;DHT22;22317;47.936;12.742;2023-02-01T13:04:38;3.60;50.10
36280;DHT22;22317;47.936;12.742;2023-02-01T13:07:14;3.60;50.20
36280;DHT22;22317;47.936;12.742;2023-02-01T13:10:02;3.50;50.10
36280;DHT22;22317;47.936;12.742;2023-02-01T13:12:49;3.50;50.10
36280;DHT22;22317;47.936;12.742;2023-02-01T13:15:25;3.50;50.30
36280;DHT22;22317;47.936;12.742;2023-02-01T13:17:53;3.50;50.20
36280;DHT22;22317;47.936;12.742;2023-02-01T13:23:13;3.50;50.00
36280;DHT22;22317;47.936;12.742;2023-02-01T13:25:48;3.50;50.10
36280;DHT22;22317;47.936;12.742;2023-02-01T13:31:37;3.50;50.20
36280;DHT22;22317;47.936;12.742;2023-02-01T13:43:12;3.40;50.10
36280;DHT22;22317;47.936;12.742;2023-02-01T13:45:49;3.40;50.20
36280;DHT22;22317;47.936;12.742;2023-02-01T13:48:41;3.50;50.10
36280;DHT22;22317;47.936;12.742;2023-02-01T13:51:12;3.50;49.90
36280;DHT22;22317;47.936;12.742;2023-02-01T13:53:47;3.40;49.90
36280;DHT22;22317;47.936;12.742;2023-02-01T13:56:16;3.40;49.90
36280;DHT22;22317;47.936;12.742;2023-02-01T13:58:44;3.30;49.70
36280;DHT22;22317;47.936;12.742;2023-02-01T14:03:59;3.20;49.50
36280;DHT22;22317;47.936;12.742;2023-02-01T14:09:11;3.20;49.50
36280;DHT22;22317;47.936;12.742;2023-02-01T14:11:57;3.10;49.60
36280;DHT22;22317;47.936;12.742;2023-02-01T14:14:37;3.20;49.70
36280;DHT22;22317;47.936;12.742;2023-02-01T14:19:35;3.20;49.60
36280;DHT22;22317;47.936;12.742;2023-02-01T14:24:54;3.20;49.60
36280;DHT22;22317;47.936;12.742;2023-02-01T14:27:35;3.20;49.70
36280;DHT22;22317;47.936;12.742;2023-02-01T14:30:05;3.10;49.50
36280;DHT22;22317;47.936;12.742;2023-02-01T14:32:40;3.20;49.60
36280;DHT22;22317;47.936;12.742;2023-02-01T14:35:17;3.10;50.20
36280;DHT22;22317;47.936;12.742;2023-02-01T14:37:45;3.10;49.80
36280;DHT22;22317;47.936;12.742;2023-02-01T14:42:49;3.20;49.90
36280;DHT22;22317;47.936;12.742;2023-02-01T14:55:44;3.30;50.00
36280;DHT22;22317;47.936;12.742;2023-02-01T14:58:36;3.20;50.00
36280;DHT22;22317;47.936;12.742;2023-02-01T15:01:29;3.20;49.90
36280;DHT22;22317;47.936;12.742;2023-02-01T15:04:01;3.20;50.00
36280;DHT22;22317;47.936;12.742;2023-02-01T15:06:40;3.20;50.00
36280;DHT22;22317;47.936;12.742;2023-02-01T15:11:58;3.20;50.00
36280;DHT22;22317;47.936;12.742;2023-02-01T15:14:27;3.20;50.10
36280;DHT22;22317;47.936;12.742;2023-02-01T15:16:53;3.20;50.70
36280;DHT22;22317;47.936;12.742;2023-02-01T15:19:24;3.10;50.10
36280;DHT22;22317;47.936;12.742;2023-02-01T15:21:54;3.20;50.40
36280;DHT22;22317;47.936;12.742;2023-02-01T15:24:25;3.20;50.30
36280;DHT22;22317;47.936;12.742;2023-02-01T15:26:53;3.20;50.30
36280;DHT22;22317;47.936;12.742;2023-02-01T15:29:20;3.20;50.40
36280;DHT22;22317;47.936;12.742;2023-02-01T15:31:51;3.10;50.40
36280;DHT22;22317;47.936;12.742;2023-02-01T15:34:18;3.20;50.50
36280;DHT22;22317;47.936;12.742;2023-02-01T15:36:45;3.10;50.40
36280;DHT22;22317;47.936;12.742;2023-02-01T15:42:10;3.10;50.40
36280;DHT22;22317;47.936;12.742;2023-02-01T15:44:44;3.10;50.50
36280;DHT22;22317;47.936;12.742;2023-02-01T15:47:23;3.10;50.50
36280;DHT22;22317;47.936;12.742;2023-02-01T15:49:52;3.00;50.30
36280;DHT22;22317;47.936;12.742;2023-02-01T15:52:34;3.00;50.30
36280;DHT22;22317;47.936;12.742;2023-02-01T15:55:07;2.90;50.30
36280;DHT22;22317;47.936;12.742;2023-02-01T15:57:36;2.90;50.40
36280;DHT22;22317;47.936;12.742;2023-02-01T16:00:08;2.90;50.40
36280;DHT22;22317;47.936;12.742;2023-02-01T16:02:52;2.90;50.60
36280;DHT22;22317;47.936;12.742;2023-02-01T16:05:34;2.90;50.60
36280;DHT22;22317;47.936;12.742;2023-02-01T16:10:42;2.80;50.50
36280;DHT22;22317;47.936;12.742;2023-02-01T16:13:08;2.80;50.70
36280;DHT22;22317;47.936;12.742;2023-02-01T16:15:34;2.90;50.80
36280;DHT22;22317;47.936;12.742;2023-02-01T16:18:00;2.80;50.70
36280;DHT22;22317;47.936;12.742;2023-02-01T16:20:25;2.80;50.80
36280;DHT22;22317;47.936;12.742;2023-02-01T16:22:51;2.80;50.90
36280;DHT22;22317;47.936;12.742;2023-02-01T16:25:17;2.80;51.10
36280;DHT22;22317;47.936;12.742;2023-02-01T16:27:42;2.70;51.00
36280;DHT22;22317;47.936;12.742;2023-02-01T16:30:09;2.70;51.10
36280;DHT22;22317;47.936;12.742;2023-02-01T16:32:36;2.70;51.10
36280;DHT22;22317;47.936;12.742;2023-02-01T16:35:17;2.60;51.20
36280;DHT22;22317;47.936;12.742;2023-02-01T16:37:45;2.50;51.20
36280;DHT22;22317;47.936;12.742;2023-02-01T16:40:14;2.50;51.40
36280;DHT22;22317;47.936;12.742;2023-02-01T16:42:40;2.50;51.40
36280;DHT22;22317;47.936;12.742;2023-02-01T16:45:06;2.50;51.70
36280;DHT22;22317;47.936;12.742;2023-02-01T16:47:36;2.50;51.70
36280;DHT22;22317;47.936;12.742;2023-02-01T16:50:03;2.50;52.40
36280;DHT22;22317;47.936;12.742;2023-02-01T16:52:29;2.50;51.90
36280;DHT22;22317;47.936;12.742;2023-02-01T16:54:55;2.50;51.90
36280;DHT22;22317;47.936;12.742;2023-02-01T16:57:21;2.40;52.00
36280;DHT22;22317;47.936;12.742;2023-02-01T16:59:48;2.40;52.20
36280;DHT22;22317;47.936;12.742;2023-02-01T17:02:17;2.30;52.30
36280;DHT22;22317;47.936;12.742;2023-02-01T17:04:44;2.40;52.50
36280;DHT22;22317;47.936;12.742;2023-02-01T17:07:17;2.30;52.60
36280;DHT22;22317;47.936;12.742;2023-02-01T17:09:45;2.30;52.60
36280;DHT22;22317;47.936;12.742;2023-02-01T17:12:22;2.30;52.60
36280;DHT22;22317;47.936;12.742;2023-02-01T17:14:48;2.30;52.70
36280;DHT22;22317;47.936;12.742;2023-02-01T17:17:15;2.30;52.80
36280;DHT22;22317;47.936;12.742;2023-02-01T17:19:49;2.30;52.80
36280;DHT22;22317;47.936;12.742;2023-02-01T17:22:22;2.30;52.80
36280;DHT22;22317;47.936;12.742;2023-02-01T17:24:49;2.30;52.70
36280;DHT22;22317;47.936;12.742;2023-02-01T17:27:16;2.30;52.80
36280;DHT22;22317;47.936;12.742;2023-02-01T17:29:43;2.30;52.80
36280;DHT22;22317;47.936;12.742;2023-02-01T17:32:17;2.30;52.80
36280;DHT22;22317;47.936;12.742;2023-02-01T17:34:44;2.30;52.80
36280;DHT22;22317;47.936;12.742;2023-02-01T17:39:46;2.30;52.70
36280;DHT22;22317;47.936;12.742;2023-02-01T17:42:23;2.30;52.70
36280;DHT22;22317;47.936;12.742;2023-02-01T17:44:52;2.30;52.70
36280;DHT22;22317;47.936;12.742;2023-02-01T17:47:20;2.30;52.70
36280;DHT22;22317;47.936;12.742;2023-02-01T17:49:45;2.30;52.60
36280;DHT22;22317;47.936;12.742;2023-02-01T17:52:17;2.30;53.10
36280;DHT22;22317;47.936;12.742;2023-02-01T17:54:44;2.40;52.60
36280;DHT22;22317;47.936;12.742;2023-02-01T17:57:12;2.30;52.70
36280;DHT22;22317;47.936;12.742;2023-02-01T17:59:38;2.40;52.50
36280;DHT22;22317;47.936;12.742;2023-02-01T18:02:20;2.50;52.30
36280;DHT22;22317;47.936;12.742;2023-02-01T18:04:47;2.30;52.30
36280;DHT22;22317;47.936;12.742;2023-02-01T18:07:14;2.30;52.30
36280;DHT22;22317;47.936;12.742;2023-02-01T18:09:40;2.30;52.30
36280;DHT22;22317;47.936;12.742;2023-02-01T18:12:17;2.30;52.20
36280;DHT22;22317;47.936;12.742;2023-02-01T18:14:43;2.40;52.20
36280;DHT22;22317;47.936;12.742;2023-02-01T18:17:09;2.30;52.10
36280;DHT22;22317;47.936;12.742;2023-02-01T18:19:36;2.40;52.20
36280;DHT22;22317;47.936;12.742;2023-02-01T18:22:02;2.40;52.10